sensor_id;sensor_type;location;lat;lon;timestamp;P1;durP1;ratioP1;P2;durP2;ratioP2
14030;SDS011;7090;49.436;8.490;2023-04-19T00:00:02;5.73;;;5.53;;
14030;SDS011;7090;49.436;8.490;2023-04-19T00:02:32;6.30;;;6.00;;
14030;SDS011;7090;49.436;8.490;2023-04-19T00:04:58;5.87;;;5.57;;
14030;SDS011;7090;49.436;8.490;2023-04-19T00:07:23;6.63;;;6.33;;
14030;SDS011;7090;49.436;8.490;2023-04-19T00:09:49;6.07;;;5.77;;
14030;SDS011;7090;49.436;8.490;2023-04-19T00:12:14;5.63;;;5.43;;
14030;SDS011;7090;49.436;8.490;2023-04-19T00:14:40;6.03;;;5.63;;
14030;SDS011;7090;49.436;8.490;2023-04-19T00:17:06;6.63;;;6.37;;
14030;SDS011;7090;49.436;8.490;2023-04-19T00:19:31;7.73;;;7.13;;
14030;SDS011;7090;49.436;8.490;2023-04-19T00:21:57;7.87;;;7.30;;
14030;SDS011;7090;49.436;8.490;2023-04-19T00:24:22;5.90;;;5.70;;
14030;SDS011;7090;49.436;8.490;2023-04-19T00:26:48;8.17;;;7.57;;
14030;SDS011;7090;49.436;8.490;2023-04-19T00:29:13;6.67;;;6.27;;
14030;SDS011;7090;49.436;8.490;2023-04-19T00:31:39;8.47;;;7.87;;
14030;SDS011;7090;49.436;8.490;2023-04-19T00:34:05;8.50;;;7.83;;
14030;SDS011;7090;49.436;8.490;2023-04-19T00:36:30;7.30;;;6.90;;
14030;SDS011;7090;49.436;8.490;2023-04-19T00:38:56;7.13;;;6.73;;
14030;SDS011;7090;49.436;8.490;2023-04-19T00:41:21;9.03;;;8.23;;
14030;SDS011;7090;49.436;8.490;2023-04-19T00:43:47;7.50;;;7.10;;
14030;SDS011;7090;49.436;8.490;2023-04-19T00:46:13;7.57;;;7.07;;
14030;SDS011;7090;49.436;8.490;2023-04-19T00:48:39;8.73;;;7.80;;
14030;SDS011;7090;49.436;8.490;2023-04-19T00:51:05;8.13;;;7.50;;
14030;SDS011;7090;49.436;8.490;2023-04-19T00:53:31;5.93;;;5.63;;
14030;SDS011;7090;49.436;8.490;2023-04-19T00:55:56;11.07;;;9.97;;
14030;SDS011;7090;49.436;8.490;2023-04-19T00:58:26;8.03;;;7.53;;
14030;SDS011;7090;49.436;8.490;2023-04-19T01:00:55;6.97;;;6.57;;
14030;SDS011;7090;49.436;8.490;2023-04-19T01:03:20;6.97;;;6.47;;
14030;SDS011;7090;49.436;8.490;2023-04-19T01:05:46;6.67;;;6.17;;
14030;SDS011;7090;49.436;8.490;2023-04-19T01:08:13;8.03;;;7.53;;
14030;SDS011;7090;49.436;8.490;2023-04-19T01:10:38;8.87;;;8.17;;
14030;SDS011;7090;49.436;8.490;2023-04-19T01:13:04;6.23;;;5.93;;
14030;SDS011;7090;49.436;8.490;2023-04-19T01:15:30;7.57;;;7.07;;
14030;SDS011;7090;49.436;8.490;2023-04-19T01:17:56;6.37;;;5.77;;
14030;SDS011;7090;49.436;8.490;2023-04-19T01:20:21;6.70;;;6.20;;
14030;SDS011;7090;49.436;8.490;2023-04-19T01:22:47;5.87;;;5.67;;
14030;SDS011;7090;49.436;8.490;2023-04-19T01:25:13;7.43;;;7.03;;
14030;SDS011;7090;49.436;8.490;2023-04-19T01:27:38;7.40;;;7.00;;
14030;SDS011;7090;49.436;8.490;2023-04-19T01:30:04;9.37;;;8.60;;
14030;SDS011;7090;49.436;8.490;2023-04-19T01:32:30;6.60;;;6.30;;
14030;SDS011;7090;49.436;8.490;2023-04-19T01:34:56;5.67;;;5.47;;
14030;SDS011;7090;49.436;8.490;2023-04-19T01:37:22;5.80;;;5.57;;
14030;SDS011;7090;49.436;8.490;2023-04-19T01:39:47;7.10;;;6.70;;
14030;SDS011;7090;49.436;8.490;2023-04-19T01:42:13;7.33;;;6.93;;
14030;SDS011;7090;49.436;8.490;2023-04-19T01:44:38;6.17;;;5.87;;
14030;SDS011;7090;49.436;8.490;2023-04-19T01:47:04;6.03;;;5.73;;
14030;SDS011;7090;49.436;8.490;2023-04-19T01:49:30;5.20;;;5.00;;
14030;SDS011;7090;49.436;8.490;2023-04-19T01:51:55;5.43;;;5.23;;
14030;SDS011;7090;49.436;8.490;2023-04-19T01:54:21;5.40;;;5.20;;
14030;SDS011;7090;49.436;8.490;2023-04-19T01:56:46;5.57;;;5.37;;
14030;SDS011;7090;49.436;8.490;2023-04-19T01:59:12;5.70;;;5.50;;
14030;SDS011;7090;49.436;8.490;2023-04-19T02:01:37;6.00;;;5.80;;
14030;SDS011;7090;49.436;8.490;2023-04-19T02:04:03;7.23;;;6.80;;
14030;SDS011;7090;49.436;8.490;2023-04-19T02:06:28;5.30;;;5.10;;
14030;SDS011;7090;49.436;8.490;2023-04-19T02:08:55;5.83;;;5.43;;
14030;SDS011;7090;49.436;8.490;2023-04-19T02:11:21;5.60;;;5.40;;
14030;SDS011;7090;49.436;8.490;2023-04-19T02:13:49;5.60;;;5.30;;
14030;SDS011;7090;49.436;8.490;2023-04-19T02:16:15;5.60;;;5.40;;
14030;SDS011;7090;49.436;8.490;2023-04-19T02:18:40;6.00;;;5.60;;
14030;SDS011;7090;49.436;8.490;2023-04-19T02:21:07;5.60;;;5.30;;
14030;SDS011;7090;49.436;8.490;2023-04-19T02:23:33;6.03;;;5.73;;
14030;SDS011;7090;49.436;8.490;2023-04-19T02:25:59;6.07;;;5.87;;
14030;SDS011;7090;49.436;8.490;2023-04-19T02:28:27;5.60;;;5.40;;
14030;SDS011;7090;49.436;8.490;2023-04-19T02:30:57;5.40;;;5.20;;
14030;SDS011;7090;49.436;8.490;2023-04-19T02:33:24;5.80;;;5.60;;
14030;SDS011;7090;49.436;8.490;2023-04-19T02:35:50;8.03;;;7.50;;
14030;SDS011;7090;49.436;8.490;2023-04-19T02:38:16;5.43;;;5.23;;
14030;SDS011;7090;49.436;8.490;2023-04-19T02:40:42;6.13;;;5.90;;
14030;SDS011;7090;49.436;8.490;2023-04-19T02:43:07;6.67;;;6.37;;
14030;SDS011;7090;49.436;8.490;2023-04-19T02:45:33;8.00;;;7.47;;
14030;SDS011;7090;49.436;8.490;2023-04-19T02:47:59;5.40;;;5.20;;
14030;SDS011;7090;49.436;8.490;2023-04-19T02:50:25;5.67;;;5.47;;
14030;SDS011;7090;49.436;8.490;2023-04-19T02:52:51;5.47;;;5.27;;
14030;SDS011;7090;49.436;8.490;2023-04-19T02:55:17;5.90;;;5.70;;
14030;SDS011;7090;49.436;8.490;2023-04-19T02:57:43;8.30;;;7.90;;
14030;SDS011;7090;49.436;8.490;2023-04-19T03:00:08;5.87;;;5.67;;
14030;SDS011;7090;49.436;8.490;2023-04-19T03:02:35;5.80;;;5.60;;
14030;SDS011;7090;49.436;8.490;2023-04-19T03:05:01;7.10;;;6.63;;
14030;SDS011;7090;49.436;8.490;2023-04-19T03:07:26;6.10;;;5.90;;
14030;SDS011;7090;49.436;8.490;2023-04-19T03:09:52;7.10;;;6.70;;
14030;SDS011;7090;49.436;8.490;2023-04-19T03:12:17;6.20;;;6.00;;
14030;SDS011;7090;49.436;8.490;2023-04-19T03:14:43;6.60;;;6.40;;
14030;SDS011;7090;49.436;8.490;2023-04-19T03:17:09;7.17;;;6.87;;
14030;SDS011;7090;49.436;8.490;2023-04-19T03:19:34;6.37;;;6.17;;
14030;SDS011;7090;49.436;8.490;2023-04-19T03:22:00;6.40;;;6.20;;
14030;SDS011;7090;49.436;8.490;2023-04-19T03:24:26;6.80;;;6.60;;
14030;SDS011;7090;49.436;8.490;2023-04-19T03:26:53;6.40;;;6.20;;
14030;SDS011;7090;49.436;8.490;2023-04-19T03:29:19;6.20;;;6.00;;
14030;SDS011;7090;49.436;8.490;2023-04-19T03:31:44;7.70;;;7.30;;
14030;SDS011;7090;49.436;8.490;2023-04-19T03:34:10;6.70;;;6.50;;
14030;SDS011;7090;49.436;8.490;2023-04-19T03:36:36;7.33;;;7.03;;
14030;SDS011;7090;49.436;8.490;2023-04-19T03:39:02;6.60;;;6.40;;
14030;SDS011;7090;49.436;8.490;2023-04-19T03:41:28;6.50;;;6.30;;
14030;SDS011;7090;49.436;8.490;2023-04-19T03:43:54;6.40;;;6.20;;
14030;SDS011;7090;49.436;8.490;2023-04-19T03:46:19;6.23;;;6.03;;
14030;SDS011;7090;49.436;8.490;2023-04-19T03:48:45;6.40;;;6.20;;
14030;SDS011;7090;49.436;8.490;2023-04-19T03:51:10;6.60;;;6.40;;
14030;SDS011;7090;49.436;8.490;2023-04-19T03:53:37;6.40;;;6.20;;
14030;SDS011;7090;49.436;8.490;2023-04-19T03:56:03;6.40;;;6.20;;
14030;SDS011;7090;49.436;8.490;2023-04-19T03:58:29;6.30;;;6.10;;
14030;SDS011;7090;49.436;8.490;2023-04-19T04:00:54;6.20;;;6.00;;
14030;SDS011;7090;49.436;8.490;2023-04-19T04:03:20;6.00;;;5.80;;
14030;SDS011;7090;49.436;8.490;2023-04-19T04:05:45;6.30;;;6.10;;
14030;SDS011;7090;49.436;8.490;2023-04-19T04:08:12;6.23;;;6.03;;
14030;SDS011;7090;49.436;8.490;2023-04-19T04:10:38;6.70;;;6.50;;
14030;SDS011;7090;49.436;8.490;2023-04-19T04:13:03;6.40;;;6.20;;
14030;SDS011;7090;49.436;8.490;2023-04-19T04:15:29;6.30;;;6.10;;
14030;SDS011;7090;49.436;8.490;2023-04-19T04:17:55;6.60;;;6.40;;
14030;SDS011;7090;49.436;8.490;2023-04-19T04:20:20;6.60;;;6.40;;
14030;SDS011;7090;49.436;8.490;2023-04-19T04:22:46;7.13;;;6.93;;
14030;SDS011;7090;49.436;8.490;2023-04-19T04:25:11;6.80;;;6.60;;
14030;SDS011;7090;49.436;8.490;2023-04-19T04:27:39;6.80;;;6.60;;
14030;SDS011;7090;49.436;8.490;2023-04-19T04:30:06;6.80;;;6.60;;
14030;SDS011;7090;49.436;8.490;2023-04-19T04:32:33;6.97;;;6.77;;
14030;SDS011;7090;49.436;8.490;2023-04-19T04:35:00;7.93;;;7.63;;
14030;SDS011;7090;49.436;8.490;2023-04-19T04:37:26;7.10;;;6.90;;
14030;SDS011;7090;49.436;8.490;2023-04-19T04:39:51;6.90;;;6.70;;
14030;SDS011;7090;49.436;8.490;2023-04-19T04:42:17;7.60;;;6.93;;
14030;SDS011;7090;49.436;8.490;2023-04-19T04:44:45;13.77;;;12.53;;
14030;SDS011;7090;49.436;8.490;2023-04-19T04:47:12;7.80;;;7.50;;
14030;SDS011;7090;49.436;8.490;2023-04-19T04:49:37;7.10;;;6.80;;
14030;SDS011;7090;49.436;8.490;2023-04-19T04:52:03;6.93;;;6.63;;
14030;SDS011;7090;49.436;8.490;2023-04-19T04:54:29;7.30;;;7.00;;
14030;SDS011;7090;49.436;8.490;2023-04-19T04:56:54;6.97;;;6.67;;
14030;SDS011;7090;49.436;8.490;2023-04-19T04:59:20;8.53;;;7.83;;
14030;SDS011;7090;49.436;8.490;2023-04-19T05:01:45;6.60;;;6.40;;
14030;SDS011;7090;49.436;8.490;2023-04-19T05:04:11;8.43;;;8.03;;
14030;SDS011;7090;49.436;8.490;2023-04-19T05:06:37;8.40;;;7.90;;
14030;SDS011;7090;49.436;8.490;2023-04-19T05:09:05;6.30;;;6.10;;
14030;SDS011;7090;49.436;8.490;2023-04-19T05:11:31;6.47;;;6.27;;
14030;SDS011;7090;49.436;8.490;2023-04-19T05:13:57;6.83;;;6.63;;
14030;SDS011;7090;49.436;8.490;2023-04-19T05:16:22;7.13;;;6.70;;
14030;SDS011;7090;49.436;8.490;2023-04-19T05:18:49;7.30;;;7.00;;
14030;SDS011;7090;49.436;8.490;2023-04-19T05:21:15;7.63;;;7.22;;
14030;SDS011;7090;49.436;8.490;2023-04-19T05:23:40;7.27;;;6.97;;
14030;SDS011;7090;49.436;8.490;2023-04-19T05:26:06;7.63;;;7.13;;
14030;SDS011;7090;49.436;8.490;2023-04-19T05:28:32;7.20;;;6.80;;
14030;SDS011;7090;49.436;8.490;2023-04-19T05:30:57;7.07;;;6.73;;
14030;SDS011;7090;49.436;8.490;2023-04-19T05:33:23;8.00;;;7.60;;
14030;SDS011;7090;49.436;8.490;2023-04-19T05:35:48;6.80;;;6.23;;
14030;SDS011;7090;49.436;8.490;2023-04-19T05:38:14;6.80;;;6.50;;
14030;SDS011;7090;49.436;8.490;2023-04-19T05:40:40;7.00;;;6.70;;
14030;SDS011;7090;49.436;8.490;2023-04-19T05:43:06;6.80;;;6.50;;
14030;SDS011;7090;49.436;8.490;2023-04-19T05:45:32;6.40;;;6.20;;
14030;SDS011;7090;49.436;8.490;2023-04-19T05:47:57;7.30;;;6.87;;
14030;SDS011;7090;49.436;8.490;2023-04-19T05:50:23;7.63;;;7.23;;
14030;SDS011;7090;49.436;8.490;2023-04-19T05:52:48;5.93;;;5.73;;
14030;SDS011;7090;49.436;8.490;2023-04-19T05:55:14;7.22;;;6.93;;
14030;SDS011;7090;49.436;8.490;2023-04-19T05:57:39;6.90;;;6.60;;
14030;SDS011;7090;49.436;8.490;2023-04-19T06:00:05;8.00;;;7.60;;
14030;SDS011;7090;49.436;8.490;2023-04-19T06:02:33;6.50;;;6.30;;
14030;SDS011;7090;49.436;8.490;2023-04-19T06:04:59;7.77;;;7.43;;
14030;SDS011;7090;49.436;8.490;2023-04-19T06:07:28;7.70;;;7.40;;
14030;SDS011;7090;49.436;8.490;2023-04-19T06:09:54;7.13;;;6.83;;
14030;SDS011;7090;49.436;8.490;2023-04-19T06:12:19;6.70;;;6.50;;
14030;SDS011;7090;49.436;8.490;2023-04-19T06:14:45;6.87;;;6.67;;
14030;SDS011;7090;49.436;8.490;2023-04-19T06:17:10;7.55;;;7.25;;
14030;SDS011;7090;49.436;8.490;2023-04-19T06:19:36;6.93;;;6.72;;
14030;SDS011;7090;49.436;8.490;2023-04-19T06:22:02;8.20;;;7.80;;
14030;SDS011;7090;49.436;8.490;2023-04-19T06:24:27;7.75;;;7.45;;
14030;SDS011;7090;49.436;8.490;2023-04-19T06:26:53;7.87;;;7.47;;
14030;SDS011;7090;49.436;8.490;2023-04-19T06:29:18;8.07;;;7.57;;
14030;SDS011;7090;49.436;8.490;2023-04-19T06:31:48;6.37;;;6.17;;
14030;SDS011;7090;49.436;8.490;2023-04-19T06:34:14;6.80;;;6.40;;
14030;SDS011;7090;49.436;8.490;2023-04-19T06:36:39;7.37;;;6.97;;
14030;SDS011;7090;49.436;8.490;2023-04-19T06:39:05;6.77;;;6.47;;
14030;SDS011;7090;49.436;8.490;2023-04-19T06:41:31;6.20;;;6.00;;
14030;SDS011;7090;49.436;8.490;2023-04-19T06:43:57;7.33;;;6.80;;
14030;SDS011;7090;49.436;8.490;2023-04-19T06:46:23;8.17;;;7.77;;
14030;SDS011;7090;49.436;8.490;2023-04-19T06:48:48;7.00;;;6.70;;
14030;SDS011;7090;49.436;8.490;2023-04-19T06:51:14;7.53;;;7.17;;
14030;SDS011;7090;49.436;8.490;2023-04-19T06:53:40;6.87;;;6.60;;
14030;SDS011;7090;49.436;8.490;2023-04-19T06:56:05;7.60;;;7.20;;
14030;SDS011;7090;49.436;8.490;2023-04-19T06:58:32;6.30;;;6.10;;
14030;SDS011;7090;49.436;8.490;2023-04-19T07:00:58;7.05;;;6.78;;
14030;SDS011;7090;49.436;8.490;2023-04-19T07:03:23;9.27;;;8.77;;
14030;SDS011;7090;49.436;8.490;2023-04-19T07:05:49;8.77;;;8.15;;
14030;SDS011;7090;49.436;8.490;2023-04-19T07:08:16;9.57;;;8.88;;
14030;SDS011;7090;49.436;8.490;2023-04-19T07:10:42;6.70;;;6.50;;
14030;SDS011;7090;49.436;8.490;2023-04-19T07:13:09;7.93;;;7.43;;
14030;SDS011;7090;49.436;8.490;2023-04-19T07:15:35;7.55;;;7.25;;
14030;SDS011;7090;49.436;8.490;2023-04-19T07:18:01;8.38;;;7.82;;
14030;SDS011;7090;49.436;8.490;2023-04-19T07:20:27;7.60;;;7.30;;
14030;SDS011;7090;49.436;8.490;2023-04-19T07:22:53;8.73;;;8.23;;
14030;SDS011;7090;49.436;8.490;2023-04-19T07:25:18;7.43;;;7.13;;
14030;SDS011;7090;49.436;8.490;2023-04-19T07:27:44;7.20;;;6.90;;
14030;SDS011;7090;49.436;8.490;2023-04-19T07:30:10;7.57;;;7.28;;
14030;SDS011;7090;49.436;8.490;2023-04-19T07:32:36;7.47;;;7.18;;
14030;SDS011;7090;49.436;8.490;2023-04-19T07:35:01;9.88;;;8.95;;
14030;SDS011;7090;49.436;8.490;2023-04-19T07:37:27;6.72;;;6.53;;
14030;SDS011;7090;49.436;8.490;2023-04-19T07:39:52;6.93;;;6.63;;
14030;SDS011;7090;49.436;8.490;2023-04-19T07:42:18;6.93;;;6.57;;
14030;SDS011;7090;49.436;8.490;2023-04-19T07:44:43;7.10;;;6.80;;
14030;SDS011;7090;49.436;8.490;2023-04-19T07:47:09;6.95;;;6.55;;
14030;SDS011;7090;49.436;8.490;2023-04-19T07:49:35;6.60;;;6.40;;
14030;SDS011;7090;49.436;8.490;2023-04-19T07:52:01;6.50;;;6.30;;
14030;SDS011;7090;49.436;8.490;2023-04-19T07:54:30;7.05;;;6.55;;
14030;SDS011;7090;49.436;8.490;2023-04-19T07:56:56;6.68;;;6.38;;
14030;SDS011;7090;49.436;8.490;2023-04-19T07:59:23;9.43;;;6.40;;
14030;SDS011;7090;49.436;8.490;2023-04-19T08:01:48;6.78;;;6.47;;
14030;SDS011;7090;49.436;8.490;2023-04-19T08:04:14;6.55;;;6.28;;
14030;SDS011;7090;49.436;8.490;2023-04-19T08:06:41;6.40;;;6.10;;
14030;SDS011;7090;49.436;8.490;2023-04-19T08:09:07;6.00;;;5.70;;
14030;SDS011;7090;49.436;8.490;2023-04-19T08:11:33;6.60;;;6.32;;
14030;SDS011;7090;49.436;8.490;2023-04-19T08:13:58;7.82;;;7.38;;
14030;SDS011;7090;49.436;8.490;2023-04-19T08:16:24;6.75;;;6.45;;
14030;SDS011;7090;49.436;8.490;2023-04-19T08:18:50;8.48;;;7.95;;
14030;SDS011;7090;49.436;8.490;2023-04-19T08:21:16;7.15;;;6.85;;
14030;SDS011;7090;49.436;8.490;2023-04-19T08:23:42;6.45;;;6.25;;
14030;SDS011;7090;49.436;8.490;2023-04-19T08:26:07;7.17;;;6.87;;
14030;SDS011;7090;49.436;8.490;2023-04-19T08:28:33;7.38;;;6.97;;
14030;SDS011;7090;49.436;8.490;2023-04-19T08:30:59;6.53;;;6.32;;
14030;SDS011;7090;49.436;8.490;2023-04-19T08:33:24;7.57;;;7.27;;
14030;SDS011;7090;49.436;8.490;2023-04-19T08:35:50;8.32;;;7.85;;
14030;SDS011;7090;49.436;8.490;2023-04-19T08:38:16;6.80;;;6.50;;
14030;SDS011;7090;49.436;8.490;2023-04-19T08:40:46;7.20;;;6.90;;
14030;SDS011;7090;49.436;8.490;2023-04-19T08:43:21;7.50;;;7.10;;
14030;SDS011;7090;49.436;8.490;2023-04-19T08:45:49;7.45;;;7.05;;
14030;SDS011;7090;49.436;8.490;2023-04-19T08:48:15;8.00;;;7.60;;
14030;SDS011;7090;49.436;8.490;2023-04-19T08:50:41;8.30;;;7.70;;
14030;SDS011;7090;49.436;8.490;2023-04-19T08:53:08;8.88;;;8.25;;
14030;SDS011;7090;49.436;8.490;2023-04-19T08:55:35;7.45;;;7.05;;
14030;SDS011;7090;49.436;8.490;2023-04-19T08:58:02;8.35;;;8.00;;
14030;SDS011;7090;49.436;8.490;2023-04-19T09:00:29;7.95;;;7.55;;
14030;SDS011;7090;49.436;8.490;2023-04-19T09:02:57;7.18;;;6.85;;
14030;SDS011;7090;49.436;8.490;2023-04-19T09:05:23;8.45;;;7.95;;
14030;SDS011;7090;49.436;8.490;2023-04-19T09:07:48;6.63;;;6.32;;
14030;SDS011;7090;49.436;8.490;2023-04-19T09:10:15;6.30;;;6.10;;
14030;SDS011;7090;49.436;8.490;2023-04-19T09:12:43;6.20;;;6.00;;
14030;SDS011;7090;49.436;8.490;2023-04-19T09:15:34;6.95;;;6.65;;
14030;SDS011;7090;49.436;8.490;2023-04-19T09:18:05;6.85;;;6.55;;
14030;SDS011;7090;49.436;8.490;2023-04-19T09:20:37;7.78;;;7.38;;
14030;SDS011;7090;49.436;8.490;2023-04-19T09:23:04;7.30;;;6.80;;
14030;SDS011;7090;49.436;8.490;2023-04-19T09:25:31;7.10;;;6.80;;
14030;SDS011;7090;49.436;8.490;2023-04-19T09:28:13;7.83;;;7.43;;
14030;SDS011;7090;49.436;8.490;2023-04-19T09:30:39;7.40;;;7.00;;
14030;SDS011;7090;49.436;8.490;2023-04-19T09:33:05;6.68;;;6.38;;
14030;SDS011;7090;49.436;8.490;2023-04-19T09:35:41;6.35;;;6.15;;
14030;SDS011;7090;49.436;8.490;2023-04-19T09:38:08;7.80;;;7.10;;
14030;SDS011;7090;49.436;8.490;2023-04-19T09:40:34;6.70;;;6.40;;
14030;SDS011;7090;49.436;8.490;2023-04-19T09:43:01;6.55;;;6.25;;
14030;SDS011;7090;49.436;8.490;2023-04-19T09:45:38;7.38;;;6.97;;
14030;SDS011;7090;49.436;8.490;2023-04-19T09:48:06;7.15;;;6.75;;
14030;SDS011;7090;49.436;8.490;2023-04-19T09:50:32;5.97;;;5.78;;
14030;SDS011;7090;49.436;8.490;2023-04-19T09:52:58;6.13;;;5.93;;
14030;SDS011;7090;49.436;8.490;2023-04-19T09:55:25;6.60;;;6.40;;
14030;SDS011;7090;49.436;8.490;2023-04-19T09:57:51;6.47;;;6.18;;
14030;SDS011;7090;49.436;8.490;2023-04-19T10:00:17;7.28;;;6.88;;
14030;SDS011;7090;49.436;8.490;2023-04-19T10:02:45;7.70;;;7.20;;
14030;SDS011;7090;49.436;8.490;2023-04-19T10:05:18;7.68;;;7.13;;
14030;SDS011;7090;49.436;8.490;2023-04-19T10:07:45;7.20;;;6.78;;
14030;SDS011;7090;49.436;8.490;2023-04-19T10:10:11;6.10;;;5.90;;
14030;SDS011;7090;49.436;8.490;2023-04-19T10:12:40;7.53;;;7.00;;
14030;SDS011;7090;49.436;8.490;2023-04-19T10:15:09;5.55;;;5.35;;
14030;SDS011;7090;49.436;8.490;2023-04-19T10:17:37;6.20;;;5.97;;
14030;SDS011;7090;49.436;8.490;2023-04-19T10:20:05;6.72;;;6.43;;
14030;SDS011;7090;49.436;8.490;2023-04-19T10:22:34;6.50;;;6.20;;
14030;SDS011;7090;49.436;8.490;2023-04-19T10:25:11;6.80;;;6.50;;
14030;SDS011;7090;49.436;8.490;2023-04-19T10:27:38;7.20;;;6.60;;
14030;SDS011;7090;49.436;8.490;2023-04-19T10:30:05;6.28;;;5.88;;
14030;SDS011;7090;49.436;8.490;2023-04-19T10:32:40;6.57;;;6.27;;
14030;SDS011;7090;49.436;8.490;2023-04-19T10:35:16;7.97;;;7.43;;
14030;SDS011;7090;49.436;8.490;2023-04-19T10:38:12;8.63;;;8.03;;
14030;SDS011;7090;49.436;8.490;2023-04-19T10:40:58;9.47;;;8.67;;
14030;SDS011;7090;49.436;8.490;2023-04-19T10:43:25;6.50;;;6.23;;
14030;SDS011;7090;49.436;8.490;2023-04-19T10:45:52;8.10;;;7.60;;
14030;SDS011;7090;49.436;8.490;2023-04-19T10:51:00;7.53;;;7.13;;
14030;SDS011;7090;49.436;8.490;2023-04-19T10:54:00;6.57;;;6.27;;
14030;SDS011;7090;49.436;8.490;2023-04-19T11:04:11;7.33;;;6.93;;
14030;SDS011;7090;49.436;8.490;2023-04-19T11:06:55;8.50;;;8.00;;
14030;SDS011;7090;49.436;8.490;2023-04-19T11:09:28;8.23;;;7.73;;
14030;SDS011;7090;49.436;8.490;2023-04-19T11:12:09;7.60;;;7.27;;
14030;SDS011;7090;49.436;8.490;2023-04-19T11:14:38;9.30;;;8.80;;
14030;SDS011;7090;49.436;8.490;2023-04-19T11:17:15;6.72;;;6.43;;
14030;SDS011;7090;49.436;8.490;2023-04-19T11:19:56;6.85;;;6.65;;
14030;SDS011;7090;49.436;8.490;2023-04-19T11:25:04;7.90;;;7.50;;
14030;SDS011;7090;49.436;8.490;2023-04-19T11:27:34;7.32;;;7.03;;
14030;SDS011;7090;49.436;8.490;2023-04-19T11:30:20;8.25;;;7.93;;
14030;SDS011;7090;49.436;8.490;2023-04-19T11:32:53;7.90;;;7.50;;
14030;SDS011;7090;49.436;8.490;2023-04-19T11:35:21;7.88;;;7.47;;
14030;SDS011;7090;49.436;8.490;2023-04-19T11:37:48;7.55;;;7.25;;
14030;SDS011;7090;49.436;8.490;2023-04-19T11:40:15;8.27;;;7.88;;
14030;SDS011;7090;49.436;8.490;2023-04-19T11:42:42;7.05;;;6.75;;
14030;SDS011;7090;49.436;8.490;2023-04-19T11:45:08;7.78;;;7.38;;
14030;SDS011;7090;49.436;8.490;2023-04-19T11:47:34;8.60;;;7.97;;
14030;SDS011;7090;49.436;8.490;2023-04-19T11:52:57;7.35;;;7.05;;
14030;SDS011;7090;49.436;8.490;2023-04-19T11:55:22;8.32;;;7.93;;
14030;SDS011;7090;49.436;8.490;2023-04-19T11:57:48;8.57;;;8.18;;
14030;SDS011;7090;49.436;8.490;2023-04-19T12:00:14;8.00;;;7.70;;
14030;SDS011;7090;49.436;8.490;2023-04-19T12:02:43;7.90;;;7.60;;
14030;SDS011;7090;49.436;8.490;2023-04-19T12:05:11;7.53;;;7.22;;
14030;SDS011;7090;49.436;8.490;2023-04-19T12:07:58;7.85;;;7.50;;
14030;SDS011;7090;49.436;8.490;2023-04-19T12:10:23;7.70;;;7.40;;
14030;SDS011;7090;49.436;8.490;2023-04-19T12:12:49;7.70;;;7.40;;
14030;SDS011;7090;49.436;8.490;2023-04-19T12:15:15;8.05;;;7.70;;
14030;SDS011;7090;49.436;8.490;2023-04-19T12:17:56;8.05;;;7.75;;
14030;SDS011;7090;49.436;8.490;2023-04-19T12:20:36;8.98;;;8.55;;
14030;SDS011;7090;49.436;8.490;2023-04-19T12:23:08;8.70;;;8.30;;
14030;SDS011;7090;49.436;8.490;2023-04-19T12:25:35;8.10;;;7.80;;
14030;SDS011;7090;49.436;8.490;2023-04-19T12:28:01;8.55;;;8.15;;
14030;SDS011;7090;49.436;8.490;2023-04-19T12:30:27;7.70;;;7.40;;
14030;SDS011;7090;49.436;8.490;2023-04-19T12:32:53;10.10;;;9.50;;
14030;SDS011;7090;49.436;8.490;2023-04-19T12:35:29;7.63;;;7.32;;
14030;SDS011;7090;49.436;8.490;2023-04-19T12:37:55;8.73;;;8.35;;
14030;SDS011;7090;49.436;8.490;2023-04-19T12:40:22;8.57;;;8.20;;
14030;SDS011;7090;49.436;8.490;2023-04-19T12:42:48;9.13;;;8.73;;
14030;SDS011;7090;49.436;8.490;2023-04-19T12:45:14;8.60;;;8.20;;
14030;SDS011;7090;49.436;8.490;2023-04-19T12:47:40;8.50;;;8.20;;
14030;SDS011;7090;49.436;8.490;2023-04-19T12:50:07;8.50;;;8.20;;
14030;SDS011;7090;49.436;8.490;2023-04-19T12:52:34;8.95;;;8.60;;
14030;SDS011;7090;49.436;8.490;2023-04-19T12:54:59;9.48;;;9.07;;
14030;SDS011;7090;49.436;8.490;2023-04-19T12:57:25;9.00;;;8.60;;
14030;SDS011;7090;49.436;8.490;2023-04-19T12:59:50;9.05;;;8.65;;
14030;SDS011;7090;49.436;8.490;2023-04-19T13:02:16;9.57;;;9.13;;
14030;SDS011;7090;49.436;8.490;2023-04-19T13:04:42;7.93;;;7.63;;
14030;SDS011;7090;49.436;8.490;2023-04-19T13:07:07;9.27;;;8.63;;
14030;SDS011;7090;49.436;8.490;2023-04-19T13:09:33;9.18;;;8.75;;
14030;SDS011;7090;49.436;8.490;2023-04-19T13:11:58;9.40;;;8.82;;
14030;SDS011;7090;49.436;8.490;2023-04-19T13:14:25;10.77;;;10.13;;
14030;SDS011;7090;49.436;8.490;2023-04-19T13:16:51;8.82;;;8.43;;
14030;SDS011;7090;49.436;8.490;2023-04-19T13:19:16;9.30;;;8.80;;
14030;SDS011;7090;49.436;8.490;2023-04-19T13:21:42;8.63;;;8.23;;
14030;SDS011;7090;49.436;8.490;2023-04-19T13:24:08;8.57;;;8.18;;
14030;SDS011;7090;49.436;8.490;2023-04-19T13:26:34;8.75;;;8.35;;
14030;SDS011;7090;49.436;8.490;2023-04-19T13:29:00;9.48;;;8.90;;
14030;SDS011;7090;49.436;8.490;2023-04-19T13:31:25;9.27;;;8.77;;
14030;SDS011;7090;49.436;8.490;2023-04-19T13:33:51;8.75;;;8.35;;
14030;SDS011;7090;49.436;8.490;2023-04-19T13:36:17;9.20;;;8.80;;
14030;SDS011;7090;49.436;8.490;2023-04-19T13:38:43;9.65;;;9.15;;
14030;SDS011;7090;49.436;8.490;2023-04-19T13:41:10;8.70;;;8.30;;
14030;SDS011;7090;49.436;8.490;2023-04-19T13:43:35;9.20;;;8.80;;
14030;SDS011;7090;49.436;8.490;2023-04-19T13:46:01;9.82;;;9.32;;
14030;SDS011;7090;49.436;8.490;2023-04-19T13:48:27;8.55;;;8.20;;
14030;SDS011;7090;49.436;8.490;2023-04-19T13:50:56;8.50;;;8.10;;
14030;SDS011;7090;49.436;8.490;2023-04-19T13:53:22;8.95;;;8.55;;
14030;SDS011;7090;49.436;8.490;2023-04-19T13:55:49;8.52;;;8.13;;
14030;SDS011;7090;49.436;8.490;2023-04-19T13:58:14;9.10;;;8.60;;
14030;SDS011;7090;49.436;8.490;2023-04-19T14:00:40;9.75;;;9.15;;
14030;SDS011;7090;49.436;8.490;2023-04-19T14:03:06;9.10;;;8.70;;
14030;SDS011;7090;49.436;8.490;2023-04-19T14:05:31;9.38;;;8.98;;
14030;SDS011;7090;49.436;8.490;2023-04-19T14:07:57;9.20;;;8.80;;
14030;SDS011;7090;49.436;8.490;2023-04-19T14:10:23;9.40;;;9.00;;
14030;SDS011;7090;49.436;8.490;2023-04-19T14:12:49;9.30;;;8.90;;
14030;SDS011;7090;49.436;8.490;2023-04-19T14:15:16;10.77;;;10.27;;
14030;SDS011;7090;49.436;8.490;2023-04-19T14:17:43;9.70;;;9.30;;
14030;SDS011;7090;49.436;8.490;2023-04-19T14:20:09;9.68;;;9.27;;
14030;SDS011;7090;49.436;8.490;2023-04-19T14:22:35;9.77;;;9.38;;
14030;SDS011;7090;49.436;8.490;2023-04-19T14:25:01;9.55;;;9.15;;
14030;SDS011;7090;49.436;8.490;2023-04-19T14:27:27;11.02;;;10.38;;
14030;SDS011;7090;49.436;8.490;2023-04-19T14:29:53;9.55;;;9.15;;
14030;SDS011;7090;49.436;8.490;2023-04-19T14:32:19;9.20;;;8.80;;
14030;SDS011;7090;49.436;8.490;2023-04-19T14:34:44;10.60;;;10.07;;
14030;SDS011;7090;49.436;8.490;2023-04-19T14:37:10;9.80;;;9.40;;
14030;SDS011;7090;49.436;8.490;2023-04-19T14:39:36;9.18;;;8.77;;
14030;SDS011;7090;49.436;8.490;2023-04-19T14:42:01;9.27;;;8.88;;
14030;SDS011;7090;49.436;8.490;2023-04-19T14:44:27;9.80;;;9.30;;
14030;SDS011;7090;49.436;8.490;2023-04-19T14:46:52;9.18;;;8.77;;
14030;SDS011;7090;49.436;8.490;2023-04-19T14:49:18;9.30;;;8.90;;
14030;SDS011;7090;49.436;8.490;2023-04-19T14:51:45;9.60;;;9.20;;
14030;SDS011;7090;49.436;8.490;2023-04-19T14:54:10;8.68;;;8.38;;
14030;SDS011;7090;49.436;8.490;2023-04-19T14:56:36;9.20;;;8.80;;
14030;SDS011;7090;49.436;8.490;2023-04-19T14:59:03;9.98;;;9.48;;
14030;SDS011;7090;49.436;8.490;2023-04-19T15:01:30;9.85;;;9.38;;
14030;SDS011;7090;49.436;8.490;2023-04-19T15:03:56;9.38;;;8.98;;
14030;SDS011;7090;49.436;8.490;2023-04-19T15:06:21;9.98;;;9.57;;
14030;SDS011;7090;49.436;8.490;2023-04-19T15:08:47;9.50;;;9.10;;
14030;SDS011;7090;49.436;8.490;2023-04-19T15:11:13;9.15;;;8.75;;
14030;SDS011;7090;49.436;8.490;2023-04-19T15:13:38;9.70;;;9.30;;